sensor_id;sensor_type;location;lat;lon;timestamp;P1;durP1;ratioP1;P2;durP2;ratioP2
76125;SDS011;65174;48.138;21.002;2023-09-19T00:00:09;8.48;;;5.57;;
76125;SDS011;65174;48.138;21.002;2023-09-19T00:03:14;8.35;;;5.18;;
76125;SDS011;65174;48.138;21.002;2023-09-19T00:06:17;8.10;;;6.07;;
76125;SDS011;65174;48.138;21.002;2023-09-19T00:09:19;7.87;;;5.07;;
76125;SDS011;65174;48.138;21.002;2023-09-19T00:12:21;6.63;;;5.07;;
76125;SDS011;65174;48.138;21.002;2023-09-19T00:15:23;8.02;;;5.00;;
76125;SDS011;65174;48.138;21.002;2023-09-19T00:18:25;6.63;;;4.82;;
76125;SDS011;65174;48.138;21.002;2023-09-19T00:21:32;9.45;;;5.93;;
76125;SDS011;65174;48.138;21.002;2023-09-19T00:24:34;6.57;;;5.20;;
76125;SDS011;65174;48.138;21.002;2023-09-19T00:27:36;8.52;;;5.15;;
76125;SDS011;65174;48.138;21.002;2023-09-19T00:30:44;8.85;;;5.20;;
76125;SDS011;65174;48.138;21.002;2023-09-19T00:33:52;8.93;;;5.85;;
76125;SDS011;65174;48.138;21.002;2023-09-19T00:36:54;8.95;;;5.57;;
76125;SDS011;65174;48.138;21.002;2023-09-19T00:39:56;12.13;;;6.07;;
76125;SDS011;65174;48.138;21.002;2023-09-19T00:42:58;9.07;;;6.03;;
76125;SDS011;65174;48.138;21.002;2023-09-19T00:46:01;9.10;;;7.10;;
76125;SDS011;65174;48.138;21.002;2023-09-19T00:49:07;9.00;;;6.07;;
76125;SDS011;65174;48.138;21.002;2023-09-19T00:52:11;9.07;;;6.78;;
76125;SDS011;65174;48.138;21.002;2023-09-19T00:55:14;10.30;;;6.47;;
76125;SDS011;65174;48.138;21.002;2023-09-19T00:58:18;9.77;;;7.15;;
76125;SDS011;65174;48.138;21.002;2023-09-19T01:01:20;13.77;;;7.35;;
76125;SDS011;65174;48.138;21.002;2023-09-19T01:04:23;9.30;;;7.32;;
76125;SDS011;65174;48.138;21.002;2023-09-19T01:07:25;11.05;;;8.00;;
76125;SDS011;65174;48.138;21.002;2023-09-19T01:10:28;10.20;;;7.17;;
76125;SDS011;65174;48.138;21.002;2023-09-19T01:17:29;11.55;;;8.07;;
76125;SDS011;65174;48.138;21.002;2023-09-19T01:24:16;13.15;;;8.00;;
76125;SDS011;65174;48.138;21.002;2023-09-19T01:30:59;9.45;;;7.63;;
76125;SDS011;65174;48.138;21.002;2023-09-19T01:34:04;14.07;;;8.40;;
76125;SDS011;65174;48.138;21.002;2023-09-19T01:37:08;15.00;;;8.63;;
76125;SDS011;65174;48.138;21.002;2023-09-19T01:40:11;11.20;;;8.27;;
76125;SDS011;65174;48.138;21.002;2023-09-19T01:43:25;15.20;;;8.60;;
76125;SDS011;65174;48.138;21.002;2023-09-19T01:46:35;11.95;;;7.97;;
76125;SDS011;65174;48.138;21.002;2023-09-19T01:49:44;11.20;;;8.25;;
76125;SDS011;65174;48.138;21.002;2023-09-19T01:56:12;11.05;;;9.27;;
76125;SDS011;65174;48.138;21.002;2023-09-19T01:59:24;10.77;;;8.43;;
76125;SDS011;65174;48.138;21.002;2023-09-19T02:02:29;12.80;;;8.45;;
76125;SDS011;65174;48.138;21.002;2023-09-19T02:05:32;13.48;;;7.90;;
76125;SDS011;65174;48.138;21.002;2023-09-19T02:08:34;12.35;;;9.00;;
76125;SDS011;65174;48.138;21.002;2023-09-19T02:11:36;12.60;;;8.75;;
76125;SDS011;65174;48.138;21.002;2023-09-19T02:14:38;12.03;;;8.67;;
76125;SDS011;65174;48.138;21.002;2023-09-19T02:17:41;11.02;;;8.80;;
76125;SDS011;65174;48.138;21.002;2023-09-19T02:20:44;14.05;;;8.95;;
76125;SDS011;65174;48.138;21.002;2023-09-19T02:23:47;11.27;;;8.73;;
76125;SDS011;65174;48.138;21.002;2023-09-19T02:26:49;14.65;;;9.13;;
76125;SDS011;65174;48.138;21.002;2023-09-19T02:29:51;11.63;;;9.03;;
76125;SDS011;65174;48.138;21.002;2023-09-19T02:32:53;16.05;;;9.52;;
76125;SDS011;65174;48.138;21.002;2023-09-19T02:35:55;16.13;;;9.93;;
76125;SDS011;65174;48.138;21.002;2023-09-19T02:38:59;13.63;;;9.02;;
76125;SDS011;65174;48.138;21.002;2023-09-19T02:42:01;13.15;;;9.52;;
76125;SDS011;65174;48.138;21.002;2023-09-19T02:45:05;12.80;;;9.27;;
76125;SDS011;65174;48.138;21.002;2023-09-19T02:48:08;13.63;;;9.13;;
76125;SDS011;65174;48.138;21.002;2023-09-19T02:51:10;13.95;;;9.43;;
76125;SDS011;65174;48.138;21.002;2023-09-19T02:54:12;15.30;;;9.85;;
76125;SDS011;65174;48.138;21.002;2023-09-19T02:57:15;12.73;;;9.45;;
76125;SDS011;65174;48.138;21.002;2023-09-19T03:00:19;12.43;;;9.53;;
76125;SDS011;65174;48.138;21.002;2023-09-19T03:03:23;13.93;;;9.82;;
76125;SDS011;65174;48.138;21.002;2023-09-19T03:06:25;13.65;;;9.55;;
76125;SDS011;65174;48.138;21.002;2023-09-19T03:09:27;15.70;;;9.18;;
76125;SDS011;65174;48.138;21.002;2023-09-19T03:12:29;12.35;;;8.70;;
76125;SDS011;65174;48.138;21.002;2023-09-19T03:15:33;15.93;;;9.63;;
76125;SDS011;65174;48.138;21.002;2023-09-19T03:18:36;13.55;;;9.50;;
76125;SDS011;65174;48.138;21.002;2023-09-19T03:21:38;12.55;;;8.50;;
76125;SDS011;65174;48.138;21.002;2023-09-19T03:24:40;13.52;;;9.55;;
76125;SDS011;65174;48.138;21.002;2023-09-19T03:27:43;13.35;;;9.38;;
76125;SDS011;65174;48.138;21.002;2023-09-19T03:30:46;14.37;;;9.53;;
76125;SDS011;65174;48.138;21.002;2023-09-19T03:33:58;12.63;;;9.20;;
76125;SDS011;65174;48.138;21.002;2023-09-19T03:37:00;12.25;;;8.95;;
76125;SDS011;65174;48.138;21.002;2023-09-19T03:40:03;14.05;;;8.95;;
76125;SDS011;65174;48.138;21.002;2023-09-19T03:43:07;15.98;;;9.35;;
76125;SDS011;65174;48.138;21.002;2023-09-19T03:46:09;12.83;;;9.07;;
76125;SDS011;65174;48.138;21.002;2023-09-19T03:49:13;13.68;;;8.73;;
76125;SDS011;65174;48.138;21.002;2023-09-19T03:52:15;11.77;;;8.63;;
76125;SDS011;65174;48.138;21.002;2023-09-19T03:55:19;12.52;;;8.63;;
76125;SDS011;65174;48.138;21.002;2023-09-19T03:58:21;13.52;;;9.00;;
76125;SDS011;65174;48.138;21.002;2023-09-19T04:01:23;13.73;;;8.73;;
76125;SDS011;65174;48.138;21.002;2023-09-19T04:04:25;11.85;;;8.32;;
76125;SDS011;65174;48.138;21.002;2023-09-19T04:07:27;14.60;;;8.65;;
76125;SDS011;65174;48.138;21.002;2023-09-19T04:10:30;10.05;;;7.72;;
76125;SDS011;65174;48.138;21.002;2023-09-19T04:13:32;13.43;;;8.38;;
76125;SDS011;65174;48.138;21.002;2023-09-19T04:16:34;13.37;;;8.83;;
76125;SDS011;65174;48.138;21.002;2023-09-19T04:19:37;11.23;;;8.02;;
76125;SDS011;65174;48.138;21.002;2023-09-19T04:22:40;12.02;;;7.90;;
76125;SDS011;65174;48.138;21.002;2023-09-19T04:25:42;12.10;;;8.30;;
76125;SDS011;65174;48.138;21.002;2023-09-19T04:28:44;11.43;;;8.07;;
76125;SDS011;65174;48.138;21.002;2023-09-19T04:31:47;13.43;;;7.80;;
76125;SDS011;65174;48.138;21.002;2023-09-19T04:34:49;11.18;;;7.55;;
76125;SDS011;65174;48.138;21.002;2023-09-19T04:37:51;12.40;;;7.45;;
76125;SDS011;65174;48.138;21.002;2023-09-19T04:40:57;9.95;;;7.80;;
76125;SDS011;65174;48.138;21.002;2023-09-19T04:44:00;11.38;;;7.28;;
76125;SDS011;65174;48.138;21.002;2023-09-19T04:47:02;10.23;;;7.30;;
76125;SDS011;65174;48.138;21.002;2023-09-19T04:50:08;11.13;;;7.72;;
76125;SDS011;65174;48.138;21.002;2023-09-19T04:53:13;12.50;;;8.18;;
76125;SDS011;65174;48.138;21.002;2023-09-19T04:56:15;13.23;;;8.45;;
76125;SDS011;65174;48.138;21.002;2023-09-19T04:59:17;20.33;;;8.38;;
76125;SDS011;65174;48.138;21.002;2023-09-19T05:02:19;11.17;;;7.70;;
76125;SDS011;65174;48.138;21.002;2023-09-19T05:05:21;10.88;;;7.85;;
76125;SDS011;65174;48.138;21.002;2023-09-19T05:08:24;12.18;;;7.85;;
76125;SDS011;65174;48.138;21.002;2023-09-19T05:11:26;12.00;;;7.55;;
76125;SDS011;65174;48.138;21.002;2023-09-19T05:14:29;11.10;;;7.28;;
76125;SDS011;65174;48.138;21.002;2023-09-19T05:17:31;11.70;;;7.63;;
76125;SDS011;65174;48.138;21.002;2023-09-19T05:20:34;11.63;;;8.77;;
76125;SDS011;65174;48.138;21.002;2023-09-19T05:23:37;11.65;;;8.05;;
76125;SDS011;65174;48.138;21.002;2023-09-19T05:26:40;11.82;;;8.20;;
76125;SDS011;65174;48.138;21.002;2023-09-19T05:29:44;11.35;;;8.38;;
76125;SDS011;65174;48.138;21.002;2023-09-19T05:32:46;11.83;;;8.10;;
76125;SDS011;65174;48.138;21.002;2023-09-19T05:35:48;12.07;;;7.70;;
76125;SDS011;65174;48.138;21.002;2023-09-19T05:38:50;13.38;;;8.43;;
76125;SDS011;65174;48.138;21.002;2023-09-19T05:41:54;11.68;;;8.02;;
76125;SDS011;65174;48.138;21.002;2023-09-19T05:44:58;11.23;;;7.60;;
76125;SDS011;65174;48.138;21.002;2023-09-19T05:48:10;11.10;;;7.80;;
76125;SDS011;65174;48.138;21.002;2023-09-19T05:51:15;12.70;;;7.95;;
76125;SDS011;65174;48.138;21.002;2023-09-19T05:54:19;14.80;;;8.52;;
76125;SDS011;65174;48.138;21.002;2023-09-19T05:57:21;13.15;;;8.60;;
76125;SDS011;65174;48.138;21.002;2023-09-19T06:00:24;10.98;;;7.57;;
76125;SDS011;65174;48.138;21.002;2023-09-19T06:03:29;12.53;;;7.97;;
76125;SDS011;65174;48.138;21.002;2023-09-19T06:06:32;12.07;;;7.07;;
76125;SDS011;65174;48.138;21.002;2023-09-19T06:09:35;9.88;;;8.02;;
76125;SDS011;65174;48.138;21.002;2023-09-19T06:12:40;11.63;;;7.60;;
76125;SDS011;65174;48.138;21.002;2023-09-19T06:15:45;9.20;;;6.57;;
76125;SDS011;65174;48.138;21.002;2023-09-19T06:18:51;10.63;;;7.60;;
76125;SDS011;65174;48.138;21.002;2023-09-19T06:21:54;11.90;;;6.80;;
76125;SDS011;65174;48.138;21.002;2023-09-19T06:24:56;13.65;;;7.55;;
76125;SDS011;65174;48.138;21.002;2023-09-19T06:27:58;10.82;;;6.82;;
76125;SDS011;65174;48.138;21.002;2023-09-19T06:31:02;9.18;;;5.55;;
76125;SDS011;65174;48.138;21.002;2023-09-19T06:34:04;7.30;;;5.80;;
76125;SDS011;65174;48.138;21.002;2023-09-19T06:37:06;8.13;;;5.90;;
76125;SDS011;65174;48.138;21.002;2023-09-19T06:40:08;7.22;;;5.30;;
76125;SDS011;65174;48.138;21.002;2023-09-19T06:43:16;7.88;;;5.15;;
76125;SDS011;65174;48.138;21.002;2023-09-19T06:46:18;11.55;;;5.13;;
76125;SDS011;65174;48.138;21.002;2023-09-19T06:49:20;6.93;;;4.30;;
76125;SDS011;65174;48.138;21.002;2023-09-19T06:52:22;6.18;;;4.70;;
76125;SDS011;65174;48.138;21.002;2023-09-19T06:55:24;6.80;;;4.45;;
76125;SDS011;65174;48.138;21.002;2023-09-19T06:58:29;6.53;;;4.10;;
76125;SDS011;65174;48.138;21.002;2023-09-19T07:01:33;9.90;;;4.18;;
76125;SDS011;65174;48.138;21.002;2023-09-19T07:04:35;5.43;;;3.57;;
76125;SDS011;65174;48.138;21.002;2023-09-19T07:07:37;5.15;;;3.53;;
76125;SDS011;65174;48.138;21.002;2023-09-19T07:10:41;5.65;;;3.42;;
76125;SDS011;65174;48.138;21.002;2023-09-19T07:13:50;5.20;;;3.88;;
76125;SDS011;65174;48.138;21.002;2023-09-19T07:16:52;5.90;;;3.63;;
76125;SDS011;65174;48.138;21.002;2023-09-19T07:19:54;7.83;;;3.90;;
76125;SDS011;65174;48.138;21.002;2023-09-19T07:22:56;7.32;;;3.70;;
76125;SDS011;65174;48.138;21.002;2023-09-19T07:26:02;6.22;;;3.28;;
76125;SDS011;65174;48.138;21.002;2023-09-19T07:29:06;7.05;;;3.63;;
76125;SDS011;65174;48.138;21.002;2023-09-19T07:32:10;8.70;;;3.53;;
76125;SDS011;65174;48.138;21.002;2023-09-19T07:35:13;6.90;;;3.80;;
76125;SDS011;65174;48.138;21.002;2023-09-19T07:38:16;6.22;;;3.60;;
76125;SDS011;65174;48.138;21.002;2023-09-19T07:41:19;8.68;;;3.80;;
76125;SDS011;65174;48.138;21.002;2023-09-19T07:44:22;4.70;;;3.75;;
76125;SDS011;65174;48.138;21.002;2023-09-19T07:47:26;7.47;;;4.30;;
76125;SDS011;65174;48.138;21.002;2023-09-19T07:50:29;8.30;;;4.60;;
76125;SDS011;65174;48.138;21.002;2023-09-19T07:53:31;7.80;;;4.35;;
76125;SDS011;65174;48.138;21.002;2023-09-19T07:56:38;7.13;;;4.15;;
76125;SDS011;65174;48.138;21.002;2023-09-19T07:59:40;7.47;;;4.05;;
76125;SDS011;65174;48.138;21.002;2023-09-19T08:02:43;6.65;;;4.05;;
76125;SDS011;65174;48.138;21.002;2023-09-19T08:05:47;7.33;;;3.43;;
76125;SDS011;65174;48.138;21.002;2023-09-19T08:08:53;6.50;;;3.90;;
76125;SDS011;65174;48.138;21.002;2023-09-19T08:11:59;5.75;;;3.45;;
76125;SDS011;65174;48.138;21.002;2023-09-19T08:15:04;7.70;;;4.00;;
76125;SDS011;65174;48.138;21.002;2023-09-19T08:18:07;8.10;;;4.10;;
76125;SDS011;65174;48.138;21.002;2023-09-19T08:21:13;9.37;;;4.33;;
76125;SDS011;65174;48.138;21.002;2023-09-19T08:24:18;12.07;;;4.00;;
76125;SDS011;65174;48.138;21.002;2023-09-19T08:27:20;8.48;;;4.20;;
76125;SDS011;65174;48.138;21.002;2023-09-19T08:30:23;8.18;;;4.30;;
76125;SDS011;65174;48.138;21.002;2023-09-19T08:33:26;5.40;;;3.92;;
76125;SDS011;65174;48.138;21.002;2023-09-19T08:36:29;9.17;;;4.50;;
76125;SDS011;65174;48.138;21.002;2023-09-19T08:39:32;8.18;;;4.40;;
76125;SDS011;65174;48.138;21.002;2023-09-19T08:45:58;5.80;;;4.85;;
76125;SDS011;65174;48.138;21.002;2023-09-19T08:49:24;5.70;;;4.10;;
76125;SDS011;65174;48.138;21.002;2023-09-19T08:52:42;8.73;;;4.80;;
76125;SDS011;65174;48.138;21.002;2023-09-19T08:55:45;7.18;;;5.18;;
76125;SDS011;65174;48.138;21.002;2023-09-19T08:58:50;10.68;;;4.35;;
76125;SDS011;65174;48.138;21.002;2023-09-19T09:01:56;8.40;;;4.75;;
76125;SDS011;65174;48.138;21.002;2023-09-19T09:05:00;8.43;;;4.43;;
76125;SDS011;65174;48.138;21.002;2023-09-19T09:08:02;5.97;;;4.60;;
76125;SDS011;65174;48.138;21.002;2023-09-19T09:11:07;10.10;;;5.03;;
76125;SDS011;65174;48.138;21.002;2023-09-19T09:14:10;9.98;;;5.35;;
76125;SDS011;65174;48.138;21.002;2023-09-19T09:17:17;11.02;;;6.00;;
76125;SDS011;65174;48.138;21.002;2023-09-19T09:20:27;11.15;;;4.60;;
76125;SDS011;65174;48.138;21.002;2023-09-19T09:23:29;9.80;;;5.13;;
76125;SDS011;65174;48.138;21.002;2023-09-19T09:26:40;7.88;;;5.07;;
76125;SDS011;65174;48.138;21.002;2023-09-19T09:30:08;8.30;;;5.07;;
76125;SDS011;65174;48.138;21.002;2023-09-19T09:33:55;6.93;;;5.10;;
76125;SDS011;65174;48.138;21.002;2023-09-19T09:37:22;9.38;;;4.78;;
76125;SDS011;65174;48.138;21.002;2023-09-19T09:40:27;10.70;;;5.07;;
76125;SDS011;65174;48.138;21.002;2023-09-19T09:43:48;9.70;;;4.82;;
76125;SDS011;65174;48.138;21.002;2023-09-19T09:46:51;9.38;;;5.57;;
76125;SDS011;65174;48.138;21.002;2023-09-19T09:49:56;10.95;;;5.40;;
76125;SDS011;65174;48.138;21.002;2023-09-19T09:53:25;9.68;;;5.03;;
76125;SDS011;65174;48.138;21.002;2023-09-19T09:57:01;12.63;;;4.63;;
76125;SDS011;65174;48.138;21.002;2023-09-19T10:00:52;7.57;;;5.15;;
76125;SDS011;65174;48.138;21.002;2023-09-19T10:03:59;9.93;;;5.60;;
76125;SDS011;65174;48.138;21.002;2023-09-19T10:07:02;11.95;;;5.22;;
76125;SDS011;65174;48.138;21.002;2023-09-19T10:10:12;8.35;;;4.70;;
76125;SDS011;65174;48.138;21.002;2023-09-19T10:13:14;12.13;;;5.93;;
76125;SDS011;65174;48.138;21.002;2023-09-19T10:16:22;7.50;;;5.35;;
76125;SDS011;65174;48.138;21.002;2023-09-19T10:19:55;13.73;;;6.13;;
76125;SDS011;65174;48.138;21.002;2023-09-19T10:23:01;8.82;;;5.25;;
76125;SDS011;65174;48.138;21.002;2023-09-19T10:26:31;11.68;;;5.78;;
76125;SDS011;65174;48.138;21.002;2023-09-19T10:29:33;14.13;;;6.40;;
76125;SDS011;65174;48.138;21.002;2023-09-19T10:33:02;10.07;;;6.22;;
76125;SDS011;65174;48.138;21.002;2023-09-19T10:36:08;8.95;;;5.80;;
76125;SDS011;65174;48.138;21.002;2023-09-19T10:39:14;8.18;;;5.57;;
76125;SDS011;65174;48.138;21.002;2023-09-19T10:42:25;9.07;;;5.97;;
76125;SDS011;65174;48.138;21.002;2023-09-19T10:45:53;13.93;;;6.67;;
76125;SDS011;65174;48.138;21.002;2023-09-19T10:49:26;10.90;;;6.20;;
76125;SDS011;65174;48.138;21.002;2023-09-19T10:52:53;10.85;;;5.97;;
76125;SDS011;65174;48.138;21.002;2023-09-19T10:56:18;13.13;;;6.25;;
76125;SDS011;65174;48.138;21.002;2023-09-19T10:59:24;12.63;;;6.50;;
76125;SDS011;65174;48.138;21.002;2023-09-19T11:06:23;13.05;;;6.85;;
76125;SDS011;65174;48.138;21.002;2023-09-19T11:09:25;12.60;;;7.22;;
76125;SDS011;65174;48.138;21.002;2023-09-19T11:12:48;10.57;;;7.63;;
76125;SDS011;65174;48.138;21.002;2023-09-19T11:18:59;11.63;;;7.77;;
76125;SDS011;65174;48.138;21.002;2023-09-19T11:22:05;13.32;;;8.05;;
76125;SDS011;65174;48.138;21.002;2023-09-19T11:28:40;14.57;;;8.07;;
76125;SDS011;65174;48.138;21.002;2023-09-19T11:32:06;8.93;;;5.93;;
76125;SDS011;65174;48.138;21.002;2023-09-19T11:35:09;7.60;;;5.60;;
76125;SDS011;65174;48.138;21.002;2023-09-19T11:38:18;9.77;;;5.60;;
76125;SDS011;65174;48.138;21.002;2023-09-19T11:49:06;8.95;;;5.43;;
76125;SDS011;65174;48.138;21.002;2023-09-19T11:52:20;7.80;;;5.87;;
76125;SDS011;65174;48.138;21.002;2023-09-19T11:55:25;8.02;;;5.88;;
76125;SDS011;65174;48.138;21.002;2023-09-19T11:58:32;9.05;;;5.80;;
76125;SDS011;65174;48.138;21.002;2023-09-19T12:01:35;8.10;;;6.15;;
76125;SDS011;65174;48.138;21.002;2023-09-19T12:04:45;8.25;;;6.40;;
76125;SDS011;65174;48.138;21.002;2023-09-19T12:07:49;10.03;;;6.97;;
76125;SDS011;65174;48.138;21.002;2023-09-19T12:10:51;7.07;;;5.55;;
76125;SDS011;65174;48.138;21.002;2023-09-19T12:13:55;10.02;;;6.70;;
76125;SDS011;65174;48.138;21.002;2023-09-19T12:17:00;9.65;;;6.53;;
76125;SDS011;65174;48.138;21.002;2023-09-19T12:20:05;14.30;;;6.72;;
76125;SDS011;65174;48.138;21.002;2023-09-19T12:23:56;9.45;;;6.03;;
76125;SDS011;65174;48.138;21.002;2023-09-19T12:27:06;7.97;;;6.30;;
76125;SDS011;65174;48.138;21.002;2023-09-19T12:30:09;8.40;;;6.40;;
76125;SDS011;65174;48.138;21.002;2023-09-19T12:33:28;11.18;;;7.35;;
76125;SDS011;65174;48.138;21.002;2023-09-19T12:36:30;12.70;;;6.80;;
76125;SDS011;65174;48.138;21.002;2023-09-19T12:39:32;8.38;;;5.95;;
76125;SDS011;65174;48.138;21.002;2023-09-19T12:42:34;9.47;;;6.80;;
76125;SDS011;65174;48.138;21.002;2023-09-19T12:45:37;10.07;;;7.47;;
76125;SDS011;65174;48.138;21.002;2023-09-19T12:48:40;8.32;;;6.80;;
76125;SDS011;65174;48.138;21.002;2023-09-19T12:51:47;8.55;;;7.05;;
76125;SDS011;65174;48.138;21.002;2023-09-19T12:54:49;9.57;;;7.00;;
76125;SDS011;65174;48.138;21.002;2023-09-19T13:01:13;10.82;;;8.45;;
76125;SDS011;65174;48.138;21.002;2023-09-19T13:04:20;12.82;;;8.20;;
76125;SDS011;65174;48.138;21.002;2023-09-19T13:07:41;12.43;;;8.18;;
76125;SDS011;65174;48.138;21.002;2023-09-19T13:14:20;11.50;;;7.40;;
76125;SDS011;65174;48.138;21.002;2023-09-19T13:17:42;8.23;;;6.38;;
76125;SDS011;65174;48.138;21.002;2023-09-19T13:20:53;9.15;;;7.20;;
76125;SDS011;65174;48.138;21.002;2023-09-19T13:24:20;9.38;;;6.65;;
76125;SDS011;65174;48.138;21.002;2023-09-19T13:27:29;9.27;;;6.55;;
76125;SDS011;65174;48.138;21.002;2023-09-19T13:30:31;7.97;;;5.93;;
76125;SDS011;65174;48.138;21.002;2023-09-19T13:33:33;8.43;;;6.30;;
76125;SDS011;65174;48.138;21.002;2023-09-19T13:36:37;10.52;;;7.20;;
76125;SDS011;65174;48.138;21.002;2023-09-19T13:39:38;10.35;;;7.78;;
76125;SDS011;65174;48.138;21.002;2023-09-19T13:42:49;12.02;;;7.47;;
76125;SDS011;65174;48.138;21.002;2023-09-19T13:45:55;9.13;;;6.73;;
76125;SDS011;65174;48.138;21.002;2023-09-19T13:48:59;10.35;;;7.15;;
76125;SDS011;65174;48.138;21.002;2023-09-19T13:52:01;10.20;;;7.90;;
76125;SDS011;65174;48.138;21.002;2023-09-19T13:55:06;9.52;;;7.72;;
76125;SDS011;65174;48.138;21.002;2023-09-19T13:58:09;9.77;;;7.05;;
76125;SDS011;65174;48.138;21.002;2023-09-19T14:01:12;8.30;;;6.17;;
76125;SDS011;65174;48.138;21.002;2023-09-19T14:04:14;10.63;;;7.18;;
76125;SDS011;65174;48.138;21.002;2023-09-19T14:07:17;9.70;;;7.03;;
76125;SDS011;65174;48.138;21.002;2023-09-19T14:10:22;9.77;;;7.00;;
76125;SDS011;65174;48.138;21.002;2023-09-19T14:13:23;8.90;;;6.97;;
76125;SDS011;65174;48.138;21.002;2023-09-19T14:16:27;9.57;;;7.03;;
76125;SDS011;65174;48.138;21.002;2023-09-19T14:19:33;10.27;;;7.15;;
76125;SDS011;65174;48.138;21.002;2023-09-19T14:22:35;8.27;;;6.97;;
76125;SDS011;65174;48.138;21.002;2023-09-19T14:25:37;7.63;;;6.57;;
76125;SDS011;65174;48.138;21.002;2023-09-19T14:28:40;10.68;;;7.47;;
76125;SDS011;65174;48.138;21.002;2023-09-19T14:31:43;10.10;;;7.67;;
76125;SDS011;65174;48.138;21.002;2023-09-19T14:34:45;9.70;;;7.35;;
76125;SDS011;65174;48.138;21.002;2023-09-19T14:37:47;10.20;;;7.32;;
76125;SDS011;65174;48.138;21.002;2023-09-19T14:40:49;11.30;;;7.57;;
76125;SDS011;65174;48.138;21.002;2023-09-19T14:44:02;8.73;;;7.22;;
76125;SDS011;65174;48.138;21.002;2023-09-19T14:47:04;7.60;;;6.00;;
76125;SDS011;65174;48.138;21.002;2023-09-19T14:50:07;8.32;;;6.47;;
76125;SDS011;65174;48.138;21.002;2023-09-19T14:53:10;10.48;;;6.05;;
76125;SDS011;65174;48.138;21.002;2023-09-19T14:56:14;9.75;;;6.07;;
76125;SDS011;65174;48.138;21.002;2023-09-19T14:59:20;8.57;;;6.05;;
76125;SDS011;65174;48.138;21.002;2023-09-19T15:02:22;11.03;;;7.23;;
76125;SDS011;65174;48.138;21.002;2023-09-19T15:05:24;10.88;;;7.55;;
76125;SDS011;65174;48.138;21.002;2023-09-19T15:08:26;12.02;;;7.97;;
76125;SDS011;65174;48.138;21.002;2023-09-19T15:11:28;13.07;;;7.75;;
76125;SDS011;65174;48.138;21.002;2023-09-19T15:14:30;10.95;;;7.95;;
76125;SDS011;65174;48.138;21.002;2023-09-19T15:17:32;9.90;;;6.90;;
76125;SDS011;65174;48.138;21.002;2023-09-19T15:20:34;7.40;;;4.72;;
76125;SDS011;65174;48.138;21.002;2023-09-19T15:23:36;6.93;;;3.60;;
76125;SDS011;65174;48.138;21.002;2023-09-19T15:26:39;4.05;;;3.13;;
76125;SDS011;65174;48.138;21.002;2023-09-19T15:29:41;4.03;;;2.75;;
76125;SDS011;65174;48.138;21.002;2023-09-19T15:32:43;4.40;;;2.67;;
76125;SDS011;65174;48.138;21.002;2023-09-19T15:35:45;3.15;;;2.65;;
76125;SDS011;65174;48.138;21.002;2023-09-19T15:39:00;5.43;;;3.15;;
76125;SDS011;65174;48.138;21.002;2023-09-19T15:42:04;5.53;;;4.00;;
76125;SDS011;65174;48.138;21.002;2023-09-19T15:45:06;6.40;;;4.85;;
76125;SDS011;65174;48.138;21.002;2023-09-19T15:48:11;6.10;;;3.83;;
76125;SDS011;65174;48.138;21.002;2023-09-19T15:51:13;5.07;;;3.83;;
76125;SDS011;65174;48.138;21.002;2023-09-19T15:54:18;3.33;;;2.63;;
76125;SDS011;65174;48.138;21.002;2023-09-19T15:57:20;3.50;;;2.38;;
76125;SDS011;65174;48.138;21.002;2023-09-19T16:00:22;2.30;;;2.10;;
76125;SDS011;65174;48.138;21.002;2023-09-19T16:03:24;2.40;;;1.53;;
76125;SDS011;65174;48.138;21.002;2023-09-19T16:06:28;1.92;;;1.42;;
76125;SDS011;65174;48.138;21.002;2023-09-19T16:13:25;2.40;;;1.17;;
76125;SDS011;65174;48.138;21.002;2023-09-19T16:16:30;2.22;;;1.10;;
76125;SDS011;65174;48.138;21.002;2023-09-19T16:19:33;2.53;;;1.23;;
76125;SDS011;65174;48.138;21.002;2023-09-19T16:22:35;4.47;;;0.80;;
76125;SDS011;65174;48.138;21.002;2023-09-19T16:25:37;2.05;;;0.90;;
76125;SDS011;65174;48.138;21.002;2023-09-19T16:28:40;4.50;;;1.27;;
76125;SDS011;65174;48.138;21.002;2023-09-19T16:31:43;1.90;;;0.73;;
76125;SDS011;65174;48.138;21.002;2023-09-19T16:34:45;0.90;;;0.67;;
76125;SDS011;65174;48.138;21.002;2023-09-19T16:37:46;1.10;;;0.93;;
76125;SDS011;65174;48.138;21.002;2023-09-19T16:40:52;1.17;;;0.80;;
76125;SDS011;65174;48.138;21.002;2023-09-19T16:43:56;0.98;;;0.82;;
76125;SDS011;65174;48.138;21.002;2023-09-19T16:46:59;0.90;;;0.80;;
76125;SDS011;65174;48.138;21.002;2023-09-19T16:50:04;1.07;;;0.90;;
76125;SDS011;65174;48.138;21.002;2023-09-19T16:53:08;1.35;;;0.77;;
76125;SDS011;65174;48.138;21.002;2023-09-19T16:56:13;1.10;;;0.80;;
76125;SDS011;65174;48.138;21.002;2023-09-19T16:59:16;1.60;;;0.60;;
76125;SDS011;65174;48.138;21.002;2023-09-19T17:02:20;1.27;;;0.80;;
76125;SDS011;65174;48.138;21.002;2023-09-19T17:05:22;1.80;;;1.00;;
76125;SDS011;65174;48.138;21.002;2023-09-19T17:08:25;3.78;;;1.00;;
76125;SDS011;65174;48.138;21.002;2023-09-19T17:11:31;0.90;;;0.70;;
76125;SDS011;65174;48.138;21.002;2023-09-19T17:14:33;2.47;;;0.88;;
76125;SDS011;65174;48.138;21.002;2023-09-19T17:17:37;3.30;;;1.10;;
76125;SDS011;65174;48.138;21.002;2023-09-19T17:20:40;1.93;;;1.10;;
76125;SDS011;65174;48.138;21.002;2023-09-19T17:23:43;3.13;;;1.40;;
76125;SDS011;65174;48.138;21.002;2023-09-19T17:26:45;1.70;;;1.55;;
76125;SDS011;65174;48.138;21.002;2023-09-19T17:29:47;1.90;;;1.65;;
76125;SDS011;65174;48.138;21.002;2023-09-19T17:32:49;2.10;;;1.90;;
76125;SDS011;65174;48.138;21.002;2023-09-19T17:35:52;4.03;;;1.60;;
76125;SDS011;65174;48.138;21.002;2023-09-19T17:39:17;1.77;;;1.40;;
76125;SDS011;65174;48.138;21.002;2023-09-19T17:42:21;2.13;;;1.48;;
76125;SDS011;65174;48.138;21.002;2023-09-19T17:45:25;2.85;;;2.00;;
76125;SDS011;65174;48.138;21.002;2023-09-19T17:48:27;3.03;;;2.10;;
76125;SDS011;65174;48.138;21.002;2023-09-19T17:51:29;3.40;;;2.47;;
76125;SDS011;65174;48.138;21.002;2023-09-19T17:54:31;3.15;;;2.53;;
76125;SDS011;65174;48.138;21.002;2023-09-19T17:57:33;3.53;;;2.60;;
76125;SDS011;65174;48.138;21.002;2023-09-19T18:00:36;3.70;;;2.50;;
76125;SDS011;65174;48.138;21.002;2023-09-19T18:03:38;4.78;;;2.85;;
76125;SDS011;65174;48.138;21.002;2023-09-19T18:06:43;3.83;;;2.63;;
76125;SDS011;65174;48.138;21.002;2023-09-19T18:09:45;4.95;;;2.50;;
76125;SDS011;65174;48.138;21.002;2023-09-19T18:12:48;3.40;;;2.40;;
76125;SDS011;65174;48.138;21.002;2023-09-19T18:15:50;4.88;;;2.53;;
76125;SDS011;65174;48.138;21.002;2023-09-19T18:18:52;4.53;;;3.33;;
76125;SDS011;65174;48.138;21.002;2023-09-19T18:21:55;4.67;;;2.60;;
76125;SDS011;65174;48.138;21.002;2023-09-19T18:25:01;3.47;;;2.80;;
76125;SDS011;65174;48.138;21.002;2023-09-19T18:28:04;4.35;;;3.13;;
76125;SDS011;65174;48.138;21.002;2023-09-19T18:31:06;3.05;;;2.72;;
76125;SDS011;65174;48.138;21.002;2023-09-19T18:34:09;4.22;;;2.63;;
76125;SDS011;65174;48.138;21.002;2023-09-19T18:37:11;4.23;;;2.90;;
76125;SDS011;65174;48.138;21.002;2023-09-19T18:40:13;4.15;;;3.03;;
76125;SDS011;65174;48.138;21.002;2023-09-19T18:43:16;3.60;;;2.85;;
76125;SDS011;65174;48.138;21.002;2023-09-19T18:46:18;4.20;;;2.55;;
76125;SDS011;65174;48.138;21.002;2023-09-19T18:49:20;4.28;;;2.70;;
76125;SDS011;65174;48.138;21.002;2023-09-19T18:52:24;3.23;;;2.80;;
76125;SDS011;65174;48.138;21.002;2023-09-19T18:55:27;5.65;;;3.17;;
76125;SDS011;65174;48.138;21.002;2023-09-19T18:58:29;3.45;;;2.55;;